Estación Meteorológica Peña el Pijo (Robertgarden) [ 02/03/23 02:55:11 CET ]

Fecha Hora Presion(HPa) Temp (°C) Humedad % Rocio (°C) Viento ( m/s) Direccion Lluvia 1Hora(mm) Lluvia 24H(mm) LLuvia Total(mm)
2012-Jun-21 01:01:15 1011.300 15.3 55 6.3         167.83
2012-Jun-21 02:01:14 1011.300 13.8 55 4.9         167.83
2012-Jun-21 03:03:17 1010.900 14.1 55 5.2         167.83
2012-Jun-21 04:01:12 1010.900 14.4 53 4.9         167.83
2012-Jun-21 05:01:14 1010.500 14.1 55 5.2         167.83
2012-Jun-21 06:01:13 1010.600 13.5 57 5.1         167.83
2012-Jun-21 07:01:17 1011.000 12.4 59 4.6         167.83
2012-Jun-21 08:01:12 1011.300 14.4 62 7.2         167.83
2012-Jun-21 09:01:16 1011.600 21.0 40 6.9         167.83
2012-Jun-21 10:01:14 1011.900 24.4 28 4.6         167.83
2012-Jun-21 11:01:14 1012.100 25.9 24 3.5         167.83
2012-Jun-21 12:01:13 1012.400 28.1 24 5.4         167.83
2012-Jun-21 13:01:16 1012.500 28.9 25 6.7         167.83
2012-Jun-21 14:01:16 1012.500 30.3 26 8.4         167.83
2012-Jun-21 15:01:14 1011.900 31.3 24 8.1 1.0 SW     167.83
2012-Jun-21 16:01:16 1011.800 32.7 23 8.7         167.83
2012-Jun-21 17:01:20 1011.700 33.1 21 7.8 1.5 SW     167.83
2012-Jun-21 18:01:16 1011.800 32.7 22 8.1         167.83
2012-Jun-21 19:01:14 1011.800 31.5 24 8.3         167.83
2012-Jun-21 20:01:14 1012.000 29.6 26 7.8         167.83
2012-Jun-21 21:01:13 1012.400 25.1 31 6.8         167.83
2012-Jun-21 22:01:13 1012.900 22.5 40 8.2         167.83
2012-Jun-21 23:01:13 1013.800 19.9 48 8.6         167.83

Temperatura Máxima:33°    Temperatura Mínima:12°
Presión Máxima:1013.800 Hpa    Presión Mínima:1010.500 Hpa


Volver